createdAt,value
2016-06-16T00:00:19.068Z,0
2016-06-16T00:01:19.072Z,0
2016-06-16T00:02:19.091Z,0
2016-06-16T00:03:19.110Z,0
2016-06-16T00:04:19.143Z,0
2016-06-16T00:05:19.161Z,0
2016-06-16T00:06:19.197Z,0
2016-06-16T00:07:19.215Z,0
2016-06-16T00:08:19.250Z,0
2016-06-16T00:09:19.268Z,0
2016-06-16T00:10:19.162Z,0
2016-06-16T00:11:19.024Z,0
2016-06-16T00:12:19.371Z,0
2016-06-16T00:13:19.391Z,0
2016-06-16T00:14:19.393Z,0
2016-06-16T00:15:19.427Z,0
2016-06-16T00:16:19.446Z,0
2016-06-16T00:17:19.465Z,0
2016-06-16T00:18:19.498Z,0
2016-06-16T00:19:19.518Z,0
2016-06-16T00:20:19.537Z,0
2016-06-16T00:21:19.571Z,0
2016-06-16T00:22:19.605Z,0
2016-06-16T00:23:19.608Z,0
2016-06-16T00:24:19.642Z,0
2016-06-16T00:25:20.489Z,0
2016-06-16T00:26:20.117Z,0
2016-06-16T00:27:19.714Z,0
2016-06-16T00:28:19.748Z,0
2016-06-16T00:29:19.782Z,0
2016-06-16T00:30:19.849Z,0
2016-06-16T00:31:19.821Z,0
2016-06-16T00:32:19.839Z,0
2016-06-16T00:33:19.872Z,0
2016-06-16T00:34:19.892Z,0
2016-06-16T00:35:19.926Z,0
2016-06-16T00:36:19.976Z,0
2016-06-16T00:37:19.964Z,0
2016-06-16T00:38:19.998Z,0
2016-06-16T00:39:20.032Z,0
2016-06-16T00:40:20.285Z,0
2016-06-16T00:41:20.305Z,0
2016-06-16T00:42:19.947Z,0
2016-06-16T00:43:20.122Z,0
2016-06-16T00:44:20.157Z,0
2016-06-16T00:45:20.192Z,0
2016-06-16T00:46:20.225Z,0
2016-06-16T00:47:20.229Z,0
2016-06-16T00:48:20.248Z,0
2016-06-16T00:49:20.313Z,0
2016-06-16T00:50:20.300Z,0
2016-06-16T00:51:20.319Z,0
2016-06-16T00:52:20.353Z,0
2016-06-16T00:53:20.372Z,0
2016-06-16T00:54:20.406Z,0
2016-06-16T00:55:20.285Z,0
2016-06-16T00:56:20.147Z,0
2016-06-16T00:57:20.510Z,0
2016-06-16T00:58:20.497Z,0
2016-06-16T00:59:20.532Z,0
2016-06-16T01:00:20.549Z,0
2016-06-16T01:01:20.569Z,0
2016-06-16T01:02:20.603Z,0
2016-06-16T01:03:20.622Z,0
2016-06-16T01:04:20.656Z,0
2016-06-16T01:05:20.690Z,0
2016-06-16T01:06:20.724Z,0
2016-06-16T01:07:20.743Z,0
2016-06-16T01:08:20.747Z,0
2016-06-16T01:09:20.780Z,0
2016-06-16T01:10:20.706Z,0
2016-06-16T01:11:20.678Z,0
2016-06-16T01:12:20.697Z,0
2016-06-16T01:13:20.886Z,0
2016-06-16T01:14:20.953Z,0
2016-06-16T01:15:20.784Z,0
2016-06-16T01:16:20.943Z,0
2016-06-16T01:17:20.977Z,0
2016-06-16T01:18:21.027Z,0
2016-06-16T01:19:21.061Z,0
2016-06-16T01:20:21.050Z,0
2016-06-16T01:21:21.114Z,0
2016-06-16T01:22:21.102Z,0
2016-06-16T01:23:21.120Z,0
2016-06-16T01:24:21.154Z,0
2016-06-16T01:25:21.799Z,0
2016-06-16T01:26:21.708Z,0
2016-06-16T01:27:21.227Z,0
2016-06-16T01:28:21.260Z,0
2016-06-16T01:29:21.280Z,0
2016-06-16T01:30:21.298Z,0
2016-06-16T01:31:21.176Z,0
2016-06-16T01:32:21.351Z,0
2016-06-16T01:33:21.386Z,0
2016-06-16T01:34:21.420Z,0
2016-06-16T01:35:21.454Z,0
2016-06-16T01:36:21.457Z,0
2016-06-16T01:37:21.351Z,0
2016-06-16T01:38:21.511Z,0
2016-06-16T01:39:21.529Z,0
2016-06-16T01:40:21.563Z,0
2016-06-16T01:41:22.786Z,0
2016-06-16T01:42:21.601Z,0
2016-06-16T01:43:21.620Z,0
2016-06-16T01:44:21.654Z,0
2016-06-16T01:45:21.688Z,0
2016-06-16T01:46:21.707Z,0
2016-06-16T01:47:21.741Z,0
2016-06-16T01:48:21.760Z,0
2016-06-16T01:49:21.779Z,0
2016-06-16T01:50:21.813Z,0
2016-06-16T01:51:21.831Z,0
2016-06-16T01:52:21.851Z,0
2016-06-16T01:53:21.869Z,0
2016-06-16T01:54:21.918Z,0
2016-06-16T01:55:21.937Z,0
2016-06-16T01:56:21.957Z,0
2016-06-16T01:57:21.991Z,0
2016-06-16T01:58:22.041Z,0
2016-06-16T01:59:21.887Z,0
2016-06-16T02:00:22.062Z,0
2016-06-16T02:01:22.081Z,0
2016-06-16T02:02:22.132Z,0
2016-06-16T02:03:22.149Z,0
2016-06-16T02:04:22.153Z,0
2016-06-16T02:05:22.187Z,0
2016-06-16T02:06:22.206Z,0
2016-06-16T02:07:22.240Z,0
2016-06-16T02:08:22.275Z,0
2016-06-16T02:09:22.325Z,0
2016-06-16T02:10:22.312Z,0
2016-06-16T02:11:23.081Z,0
2016-06-16T02:12:22.349Z,0
2016-06-16T02:13:22.384Z,0
2016-06-16T02:14:22.402Z,0
2016-06-16T02:15:22.436Z,0
2016-06-16T02:16:22.472Z,0
2016-06-16T02:17:22.536Z,0
2016-06-16T02:18:22.508Z,0
2016-06-16T02:19:22.528Z,0
2016-06-16T02:20:22.546Z,0
2016-06-16T02:21:22.579Z,0
2016-06-16T02:22:22.615Z,0
2016-06-16T02:23:22.633Z,0
2016-06-16T02:24:22.652Z,0
2016-06-16T02:25:22.686Z,0
2016-06-16T02:26:23.158Z,0
2016-06-16T02:27:22.739Z,0
2016-06-16T02:28:22.759Z,0
2016-06-16T02:29:22.636Z,0
2016-06-16T02:30:22.811Z,0
2016-06-16T02:31:22.829Z,0
2016-06-16T02:32:22.724Z,0
2016-06-16T02:33:22.726Z,0
2016-06-16T02:34:22.917Z,0
2016-06-16T02:35:22.936Z,0
2016-06-16T02:36:22.798Z,0
2016-06-16T02:37:22.989Z,0
2016-06-16T02:38:23.007Z,0
2016-06-16T02:39:23.042Z,0
2016-06-16T02:40:23.045Z,0
2016-06-16T02:41:23.001Z,0
2016-06-16T02:42:23.113Z,0
2016-06-16T02:43:23.132Z,0
2016-06-16T02:44:23.167Z,0
2016-06-16T02:45:23.014Z,0
2016-06-16T02:46:23.203Z,0
2016-06-16T02:47:23.253Z,0
2016-06-16T02:48:23.257Z,4
2016-06-16T02:49:23.291Z,4
2016-06-16T02:50:23.309Z,4
2016-06-16T02:51:23.329Z,0
2016-06-16T02:52:23.363Z,4
2016-06-16T02:53:23.382Z,4
2016-06-16T02:54:23.400Z,4
2016-06-16T02:55:23.451Z,4
2016-06-16T02:56:23.344Z,4
2016-06-16T02:57:23.487Z,8
2016-06-16T02:58:23.507Z,8
2016-06-16T02:59:23.526Z,8
2016-06-16T03:00:23.404Z,8
2016-06-16T03:01:23.594Z,8
2016-06-16T03:02:23.597Z,12
2016-06-16T03:03:23.631Z,12
2016-06-16T03:04:23.650Z,16
2016-06-16T03:05:23.684Z,16
2016-06-16T03:06:23.718Z,20
2016-06-16T03:07:23.754Z,20
2016-06-16T03:08:23.756Z,20
2016-06-16T03:09:23.790Z,28
2016-06-16T03:10:23.809Z,32
2016-06-16T03:11:24.094Z,32
2016-06-16T03:12:23.862Z,36
2016-06-16T03:13:23.896Z,40
2016-06-16T03:14:23.899Z,44
2016-06-16T03:15:23.934Z,44
2016-06-16T03:16:23.953Z,52
2016-06-16T03:17:23.987Z,56
2016-06-16T03:18:24.005Z,60
2016-06-16T03:19:24.024Z,64
2016-06-16T03:20:24.058Z,72
2016-06-16T03:21:24.077Z,80
2016-06-16T03:22:24.096Z,84
2016-06-16T03:23:23.989Z,92
2016-06-16T03:24:24.149Z,100
2016-06-16T03:25:24.167Z,104
2016-06-16T03:26:25.358Z,112
2016-06-16T03:27:24.237Z,124
2016-06-16T03:28:24.240Z,128
2016-06-16T03:29:24.273Z,140
2016-06-16T03:30:24.308Z,148
2016-06-16T03:31:24.342Z,160
2016-06-16T03:32:24.345Z,172
2016-06-16T03:33:24.364Z,180
2016-06-16T03:34:24.398Z,192
2016-06-16T03:35:24.432Z,204
2016-06-16T03:36:24.452Z,216
2016-06-16T03:37:24.501Z,232
2016-06-16T03:38:24.504Z,244
2016-06-16T03:39:24.554Z,256
2016-06-16T03:40:24.557Z,268
2016-06-16T03:41:24.592Z,284
2016-06-16T03:42:24.625Z,300
2016-06-16T03:43:24.613Z,312
2016-06-16T03:44:24.679Z,332
2016-06-16T03:45:24.666Z,344
2016-06-16T03:46:24.701Z,364
2016-06-16T03:47:24.735Z,376
2016-06-16T03:48:24.785Z,392
2016-06-16T03:49:24.772Z,408
2016-06-16T03:50:24.792Z,424
2016-06-16T03:51:24.825Z,440
2016-06-16T03:52:24.859Z,456
2016-06-16T03:53:24.878Z,476
2016-06-16T03:54:24.898Z,496
2016-06-16T03:55:24.915Z,524
2016-06-16T03:56:25.076Z,548
2016-06-16T03:57:25.188Z,572
2016-06-16T03:58:24.988Z,592
2016-06-16T03:59:25.038Z,612
2016-06-16T04:00:25.056Z,636
2016-06-16T04:01:25.106Z,652
2016-06-16T04:02:25.109Z,664
2016-06-16T04:03:25.129Z,680
2016-06-16T04:04:25.146Z,696
2016-06-16T04:05:25.165Z,716
2016-06-16T04:06:25.215Z,752
2016-06-16T04:07:25.250Z,780
2016-06-16T04:08:25.096Z,832
2016-06-16T04:09:25.271Z,872
2016-06-16T04:10:25.306Z,880
2016-06-16T04:11:25.918Z,904
2016-06-16T04:12:25.046Z,904
2016-06-16T04:13:25.361Z,920
2016-06-16T04:14:25.240Z,948
2016-06-16T04:15:25.446Z,980
2016-06-16T04:16:25.468Z,1012
2016-06-16T04:17:25.527Z,1012
2016-06-16T04:18:25.600Z,996
2016-06-16T04:19:25.659Z,948
2016-06-16T04:20:25.717Z,964
2016-06-16T04:21:25.796Z,1040
2016-06-16T04:22:25.829Z,1132
2016-06-16T04:23:25.861Z,1176
2016-06-16T04:24:25.879Z,1188
2016-06-16T04:25:25.928Z,1192
2016-06-16T04:26:26.753Z,1196
2016-06-16T04:27:26.745Z,1208
2016-06-16T04:28:26.019Z,1212
2016-06-16T04:29:26.043Z,1224
2016-06-16T04:30:25.941Z,1228
2016-06-16T04:31:26.120Z,1236
2016-06-16T04:32:25.985Z,1248
2016-06-16T04:33:26.193Z,1268
2016-06-16T04:34:26.198Z,1284
2016-06-16T04:35:26.249Z,1308
2016-06-16T04:36:26.238Z,1324
2016-06-16T04:37:26.289Z,1340
2016-06-16T04:38:26.308Z,1372
2016-06-16T04:39:26.203Z,1376
2016-06-16T04:40:26.348Z,1388
2016-06-16T04:41:26.382Z,1440
2016-06-16T04:42:26.823Z,1456
2016-06-16T04:43:26.420Z,1484
2016-06-16T04:44:26.487Z,1504
2016-06-16T04:45:26.474Z,1516
2016-06-16T04:46:26.508Z,1540
2016-06-16T04:47:26.527Z,1568
2016-06-16T04:48:26.562Z,1580
2016-06-16T04:49:26.580Z,1596
2016-06-16T04:50:26.599Z,1608
2016-06-16T04:51:26.634Z,1624
2016-06-16T04:52:26.668Z,1636
2016-06-16T04:53:26.671Z,1664
2016-06-16T04:54:26.705Z,1700
2016-06-16T04:55:26.599Z,1756
2016-06-16T04:56:27.461Z,1816
2016-06-16T04:57:27.668Z,1892
2016-06-16T04:58:26.811Z,1964
2016-06-16T04:59:26.845Z,2044
2016-06-16T05:00:26.864Z,2124
2016-06-16T05:01:26.882Z,2220
2016-06-16T05:02:26.932Z,2280
2016-06-16T05:03:26.983Z,2420
2016-06-16T05:04:26.955Z,2512
2016-06-16T05:05:27.019Z,2604
2016-06-16T05:06:27.008Z,2660
2016-06-16T05:07:26.870Z,2760
2016-06-16T05:08:27.092Z,2872
2016-06-16T05:09:27.079Z,3000
2016-06-16T05:10:27.098Z,3172
2016-06-16T05:11:27.163Z,3276
2016-06-16T05:12:27.417Z,3596
2016-06-16T05:13:27.186Z,4956
2016-06-16T05:14:27.220Z,6832
2016-06-16T05:15:27.098Z,9324
2016-06-16T05:16:27.272Z,15288
2016-06-16T05:17:27.323Z,20960
2016-06-16T05:18:27.295Z,23520
2016-06-16T05:19:27.360Z,20960
2016-06-16T05:20:27.363Z,13860
2016-06-16T05:21:27.413Z,24320
2016-06-16T05:22:27.416Z,21344
2016-06-16T05:23:27.435Z,25952
2016-06-16T05:24:27.469Z,26304
2016-06-16T05:25:27.488Z,22528
2016-06-16T05:26:28.148Z,26528
2016-06-16T05:27:27.917Z,24480
2016-06-16T05:28:27.576Z,23744
2016-06-16T05:29:27.593Z,26208
2016-06-16T05:30:27.628Z,26400
2016-06-16T05:31:27.647Z,20000
2016-06-16T05:32:27.682Z,20960
2016-06-16T05:33:27.700Z,19328
2016-06-16T05:34:27.734Z,19040
2016-06-16T05:35:27.753Z,20928
2016-06-16T05:36:27.787Z,24000
2016-06-16T05:37:27.806Z,21376
2016-06-16T05:38:27.840Z,20352
2016-06-16T05:39:27.859Z,17664
2016-06-16T05:40:27.877Z,20640
2016-06-16T05:41:27.912Z,18592
2016-06-16T05:42:27.947Z,17888
2016-06-16T05:43:27.981Z,27712
2016-06-16T05:44:27.844Z,27872
2016-06-16T05:45:28.034Z,28032
2016-06-16T05:46:27.896Z,27968
2016-06-16T05:47:27.930Z,18592
2016-06-16T05:48:28.106Z,25504
2016-06-16T05:49:28.155Z,26432
2016-06-16T05:50:28.158Z,24960
2016-06-16T05:51:28.193Z,22016
2016-06-16T05:52:28.227Z,10560
2016-06-16T05:53:28.246Z,10316
2016-06-16T05:54:28.281Z,15268
2016-06-16T05:55:28.299Z,13468
2016-06-16T05:56:28.334Z,9932
2016-06-16T05:57:28.680Z,10860
2016-06-16T05:58:28.418Z,14108
2016-06-16T05:59:28.435Z,26528
2016-06-16T06:00:28.438Z,16084
2016-06-16T06:01:28.458Z,9068
2016-06-16T06:02:28.492Z,9676
2016-06-16T06:03:28.511Z,11372
2016-06-16T06:04:28.545Z,23584
2016-06-16T06:05:28.579Z,12616
2016-06-16T06:06:28.598Z,13848
2016-06-16T06:07:28.633Z,8108
2016-06-16T06:08:28.652Z,7792
2016-06-16T06:09:28.671Z,7572
2016-06-16T06:10:28.580Z,7500
2016-06-16T06:11:28.755Z,9212
2016-06-16T06:12:28.757Z,8020
2016-06-16T06:13:28.775Z,7576
2016-06-16T06:14:28.811Z,6816
2016-06-16T06:15:28.845Z,6764
2016-06-16T06:16:28.707Z,6956
2016-06-16T06:17:28.788Z,7196
2016-06-16T06:18:28.932Z,7720
2016-06-16T06:19:28.952Z,8236
2016-06-16T06:20:28.985Z,7336
2016-06-16T06:21:29.004Z,7348
2016-06-16T06:22:29.053Z,7876
2016-06-16T06:23:29.057Z,7840
2016-06-16T06:24:29.091Z,7756
2016-06-16T06:25:29.126Z,8480
2016-06-16T06:26:29.004Z,8464
2016-06-16T06:27:29.194Z,8296
2016-06-16T06:28:29.041Z,8076
2016-06-16T06:29:29.216Z,8368
2016-06-16T06:30:29.250Z,9532
2016-06-16T06:31:29.269Z,9168
2016-06-16T06:32:29.303Z,9400
2016-06-16T06:33:29.322Z,10152
2016-06-16T06:34:29.357Z,12336
2016-06-16T06:35:29.376Z,9288
2016-06-16T06:36:29.410Z,9044
2016-06-16T06:37:29.427Z,8628
2016-06-16T06:38:29.462Z,8184
2016-06-16T06:39:29.497Z,8052
2016-06-16T06:40:29.516Z,8400
2016-06-16T06:41:29.550Z,9876
2016-06-16T06:42:29.584Z,8504
2016-06-16T06:43:29.603Z,10320
2016-06-16T06:44:29.637Z,10288
2016-06-16T06:45:29.671Z,11468
2016-06-16T06:46:29.674Z,12888
2016-06-16T06:47:29.708Z,12024
2016-06-16T06:48:29.744Z,9896
2016-06-16T06:49:29.778Z,10192
2016-06-16T06:50:29.781Z,11088
2016-06-16T06:51:29.814Z,10784
2016-06-16T06:52:29.849Z,13536
2016-06-16T06:53:29.883Z,12096
2016-06-16T06:54:29.902Z,10708
2016-06-16T06:55:29.937Z,16152
2016-06-16T06:56:29.955Z,18176
2016-06-16T06:57:29.849Z,12896
2016-06-16T06:58:30.024Z,11348
2016-06-16T06:59:30.042Z,11396
2016-06-16T07:00:29.920Z,11652
2016-06-16T07:01:30.111Z,10500
2016-06-16T07:02:30.162Z,10864
2016-06-16T07:03:30.008Z,15456
2016-06-16T07:04:30.198Z,15168
2016-06-16T07:05:30.217Z,14048
2016-06-16T07:06:30.252Z,22080
2016-06-16T07:07:30.270Z,21536
2016-06-16T07:08:30.305Z,13048
2016-06-16T07:09:30.183Z,18944
2016-06-16T07:10:30.373Z,12760
2016-06-16T07:11:30.407Z,24800
2016-06-16T07:12:30.301Z,14044
2016-06-16T07:13:30.476Z,10440
2016-06-16T07:14:30.541Z,11024
2016-06-16T07:15:30.514Z,12596
2016-06-16T07:16:30.533Z,11892
2016-06-16T07:17:30.411Z,12964
2016-06-16T07:18:30.585Z,20640
2016-06-16T07:19:30.636Z,21984
2016-06-16T07:20:30.654Z,16512
2016-06-16T07:21:30.688Z,12648
2016-06-16T07:22:30.723Z,9556
2016-06-16T07:23:30.601Z,10180
2016-06-16T07:24:30.777Z,13112
2016-06-16T07:25:30.810Z,25152
2016-06-16T07:26:30.688Z,26240
2016-06-16T07:27:31.363Z,13456
2016-06-16T07:28:30.897Z,10672
2016-06-16T07:29:30.932Z,10392
2016-06-16T07:30:30.965Z,25952
2016-06-16T07:31:31.000Z,11992
2016-06-16T07:32:43.753Z,10040
2016-06-16T07:33:31.038Z,10964
2016-06-16T07:34:31.057Z,19456
2016-06-16T07:48:36.755Z,15020
2016-06-16T07:48:44.161Z,20864
2016-06-16T07:48:56.599Z,21024
2016-06-16T07:49:56.758Z,18464
2016-06-16T07:50:56.808Z,15228
2016-06-16T07:51:56.749Z,15804
2016-06-16T07:52:56.673Z,13312
2016-06-16T07:53:56.723Z,19552
2016-06-16T07:54:56.915Z,19360
2016-06-16T07:55:56.933Z,16560
2016-06-16T07:56:56.983Z,16420
2016-06-16T07:57:56.860Z,13960
2016-06-16T07:58:57.035Z,8464
2016-06-16T07:59:57.055Z,12708
2016-06-16T08:00:56.933Z,12132
2016-06-16T08:01:57.123Z,10024
2016-06-16T08:02:57.142Z,12092
2016-06-16T08:03:57.176Z,10720
2016-06-16T08:04:57.226Z,7972
2016-06-16T08:05:57.088Z,6748
2016-06-16T08:06:57.124Z,8456
2016-06-16T08:07:57.299Z,8820
2016-06-16T08:08:57.177Z,9592
2016-06-16T08:09:57.367Z,7660
2016-06-16T08:10:57.386Z,6568
2016-06-16T08:11:57.435Z,6160
2016-06-16T08:12:57.485Z,6996
2016-06-16T08:13:57.488Z,8396
2016-06-16T08:14:57.506Z,8124
2016-06-16T08:15:57.557Z,9216
2016-06-16T08:16:57.576Z,6872
2016-06-16T08:17:57.907Z,6236
2016-06-16T08:18:57.645Z,7532
2016-06-16T08:19:57.522Z,8868
2016-06-16T08:20:57.697Z,7172
2016-06-16T08:21:57.576Z,6404
2016-06-16T08:22:57.750Z,7896
2016-06-16T08:23:57.629Z,8740
2016-06-16T08:24:57.818Z,7288
2016-06-16T08:25:57.837Z,9860
2016-06-16T08:26:57.871Z,11016
2016-06-16T08:27:57.750Z,9216
2016-06-16T08:28:57.941Z,9684
2016-06-16T08:29:57.975Z,8288
2016-06-16T08:30:57.994Z,6624
2016-06-16T08:31:58.059Z,6984
2016-06-16T08:32:58.062Z,8156
2016-06-16T08:33:58.096Z,7072
2016-06-16T08:34:58.116Z,6144
2016-06-16T08:35:57.994Z,5772
2016-06-16T08:36:58.028Z,5592
2016-06-16T08:37:58.218Z,5444
2016-06-16T08:38:58.237Z,5296
2016-06-16T08:39:58.115Z,5168
2016-06-16T08:40:58.150Z,5084
2016-06-16T08:41:58.356Z,4996
2016-06-16T08:42:58.360Z,4888
2016-06-16T08:43:58.425Z,4784
2016-06-16T08:44:58.413Z,4656
2016-06-16T08:45:58.306Z,4600
2016-06-16T08:46:58.325Z,4632
2016-06-16T08:48:19.643Z,4720
2016-06-16T08:48:32.300Z,4732
2016-06-16T08:49:32.318Z,4724
2016-06-16T08:50:32.322Z,4756
2016-06-16T08:51:32.371Z,4772
2016-06-16T08:52:32.390Z,4792
2016-06-16T08:53:32.253Z,4820
2016-06-16T08:54:32.303Z,4832
2016-06-16T08:55:32.462Z,4880
2016-06-16T08:56:32.527Z,4924
2016-06-16T08:57:32.531Z,4992
2016-06-16T08:58:32.408Z,5036
2016-06-16T08:59:32.584Z,5068
2016-06-16T09:00:32.618Z,5136
2016-06-16T09:01:32.496Z,5200
2016-06-16T09:02:32.358Z,5344
2016-06-16T09:03:32.549Z,5404
2016-06-16T09:04:32.583Z,5532
2016-06-16T09:05:32.618Z,5652
2016-06-16T09:06:32.808Z,5732
2016-06-16T09:07:32.670Z,5740
2016-06-16T09:08:32.861Z,5700
2016-06-16T09:09:32.740Z,5716
2016-06-16T09:10:32.914Z,5712
2016-06-16T09:11:32.636Z,5680
2016-06-16T09:12:32.966Z,5616
2016-06-16T09:13:33.017Z,5508
2016-06-16T09:14:33.036Z,5420
2016-06-16T09:15:33.070Z,5408
2016-06-16T09:16:33.104Z,5416
2016-06-16T09:17:33.123Z,5368
2016-06-16T09:18:33.001Z,5280
2016-06-16T09:19:33.036Z,5160
2016-06-16T09:20:33.054Z,5052
2016-06-16T09:21:33.245Z,4980
2016-06-16T09:22:33.107Z,4944
2016-06-16T09:23:33.188Z,4940
2016-06-16T09:24:33.176Z,4956
2016-06-16T09:25:33.054Z,4980
2016-06-16T09:26:33.401Z,5004
2016-06-16T09:27:33.420Z,5036
2016-06-16T09:28:33.298Z,5064
2016-06-16T09:29:33.488Z,5116
2016-06-16T09:30:33.507Z,5188
2016-06-16T09:31:33.541Z,5244
2016-06-16T09:32:33.575Z,5284
2016-06-16T09:33:33.782Z,5300
2016-06-16T09:34:33.644Z,5308
2016-06-16T09:35:33.351Z,5320
2016-06-16T09:36:33.526Z,5360
2016-06-16T09:37:33.404Z,5436
2016-06-16T09:38:33.749Z,5528
2016-06-16T09:39:33.628Z,5676
2016-06-16T09:40:33.803Z,5908
2016-06-16T09:41:33.838Z,5912
2016-06-16T09:42:33.872Z,5952
2016-06-16T09:43:33.953Z,6008
2016-06-16T09:44:33.940Z,6192
2016-06-16T09:45:34.412Z,6328
2016-06-16T09:46:33.979Z,6420
2016-06-16T09:47:34.027Z,6456
2016-06-16T09:48:34.046Z,6416
2016-06-16T09:49:34.081Z,6396
2016-06-16T09:50:33.958Z,6520
2016-06-16T09:51:34.150Z,6544
2016-06-16T09:52:34.168Z,6660
2016-06-16T09:53:34.218Z,6556
2016-06-16T09:54:34.330Z,6440
2016-06-16T09:55:34.256Z,6248
2016-06-16T09:56:34.149Z,6072
2016-06-16T09:57:34.324Z,5908
2016-06-16T09:58:34.358Z,5760
2016-06-16T09:59:34.236Z,5624
2016-06-16T10:00:34.255Z,5512
2016-06-16T10:01:34.445Z,5472
2016-06-16T10:02:34.481Z,5604
2016-06-16T10:03:34.515Z,5480
2016-06-16T10:04:34.768Z,5624
2016-06-16T10:05:34.521Z,5748
2016-06-16T10:06:35.055Z,5764
2016-06-16T10:07:34.682Z,5760
2016-06-16T10:08:39.967Z,5580
2016-06-16T10:09:34.736Z,5336
2016-06-16T10:10:34.395Z,5140
2016-06-16T10:11:34.586Z,5004
2016-06-16T10:12:34.464Z,4924
2016-06-16T10:13:34.795Z,4928
2016-06-16T10:14:34.830Z,4900
2016-06-16T10:15:34.849Z,4956
2016-06-16T10:16:34.585Z,5028
2016-06-16T10:17:34.933Z,5036
2016-06-16T10:18:34.935Z,5056
2016-06-16T10:19:34.970Z,5124
2016-06-16T10:20:35.020Z,5000
2016-06-16T10:21:35.039Z,4828
2016-06-16T10:22:35.057Z,5012
2016-06-16T10:23:35.107Z,4908
2016-06-16T10:24:34.970Z,4800
2016-06-16T10:25:35.160Z,4668
2016-06-16T10:26:35.210Z,4572
2016-06-16T10:27:35.198Z,4472
2016-06-16T10:28:35.232Z,4200
2016-06-16T10:29:35.267Z,3988
2016-06-16T10:30:35.145Z,3812
2016-06-16T10:31:35.335Z,3776
2016-06-16T10:32:35.370Z,3712
2016-06-16T10:33:35.404Z,3712
2016-06-16T10:34:35.421Z,3692
2016-06-16T10:35:35.300Z,3656
2016-06-16T10:36:35.475Z,3608
2016-06-16T10:37:35.525Z,3596
2016-06-16T10:38:35.544Z,3580
2016-06-16T10:39:35.594Z,3588
2016-06-16T10:40:35.598Z,3588
2016-06-16T10:41:35.318Z,3620
2016-06-16T10:42:35.650Z,3652
2016-06-16T10:43:35.684Z,3644
2016-06-16T10:44:35.438Z,3672
2016-06-16T10:45:35.800Z,3760
2016-06-16T10:46:35.631Z,3884
2016-06-16T10:47:35.806Z,3964
2016-06-16T10:48:35.840Z,4076
2016-06-16T10:49:35.859Z,4192
2016-06-16T10:50:35.893Z,4228
2016-06-16T10:51:35.928Z,4228
2016-06-16T10:52:35.993Z,4248
2016-06-16T10:53:35.980Z,4308
2016-06-16T10:54:36.031Z,4456
2016-06-16T10:55:35.877Z,4584
2016-06-16T10:56:36.084Z,4664
2016-06-16T10:57:36.118Z,4816
2016-06-16T10:58:36.137Z,4944
2016-06-16T10:59:36.186Z,5084
2016-06-16T11:00:36.206Z,5248
2016-06-16T11:01:36.068Z,5404
2016-06-16T11:02:36.102Z,5584
2016-06-16T11:03:36.309Z,5708
2016-06-16T11:04:36.171Z,5760
2016-06-16T11:07:51.540Z,5544
2016-06-16T11:09:42.093Z,5164
2016-06-16T11:09:54.686Z,5112
2016-06-16T11:10:54.705Z,4900
2016-06-16T11:11:54.724Z,4652
2016-06-16T11:13:39.621Z,4444
2016-06-16T11:13:54.808Z,4424
2016-06-16T11:14:54.811Z,4404
2016-06-16T11:15:54.830Z,4468
2016-06-16T11:16:54.880Z,4488
2016-06-16T11:17:54.883Z,4448
2016-06-16T11:18:54.761Z,4496
2016-06-16T11:19:54.779Z,4624
2016-06-16T11:20:54.971Z,4784
2016-06-16T11:21:55.005Z,4920
2016-06-16T11:22:54.899Z,5056
2016-06-16T11:23:55.058Z,5228
2016-06-16T11:24:54.920Z,5316
2016-06-16T11:25:55.127Z,5404
2016-06-16T11:26:55.129Z,5504
2016-06-16T11:27:55.008Z,5592
2016-06-16T11:28:55.229Z,5668
2016-06-16T11:29:55.264Z,5748
2016-06-16T11:30:55.267Z,5856
2016-06-16T11:31:55.301Z,5996
2016-06-16T11:32:55.163Z,6116
2016-06-16T11:33:55.355Z,6184
2016-06-16T11:34:55.388Z,6160
2016-06-16T11:35:55.423Z,6040
2016-06-16T11:36:55.426Z,5816
2016-06-16T11:37:55.459Z,5628
2016-06-16T11:38:55.494Z,5428
2016-06-16T11:39:55.529Z,5208
2016-06-16T11:40:55.563Z,5016
2016-06-16T11:41:55.629Z,4852
2016-06-16T11:42:55.632Z,4720
2016-06-16T11:43:55.681Z,4584
2016-06-16T11:44:55.700Z,4424
2016-06-16T11:45:55.703Z,4300
2016-06-16T11:46:55.582Z,4232
2016-06-16T11:47:55.615Z,4248
2016-06-16T11:48:55.790Z,4308
2016-06-16T11:49:55.653Z,4452
2016-06-16T11:50:55.843Z,4652
2016-06-16T11:51:55.925Z,4848
2016-06-16T11:52:55.897Z,4896
2016-06-16T11:53:55.931Z,4980
2016-06-16T11:54:55.965Z,5072
2016-06-16T11:55:56.000Z,5092
2016-06-16T11:56:55.862Z,5092
2016-06-16T11:57:55.896Z,5076
2016-06-16T11:58:56.088Z,4996
2016-06-16T11:59:56.091Z,4852
2016-06-16T12:00:56.124Z,4652
2016-06-16T12:01:56.159Z,4352
2016-06-16T12:02:56.209Z,4040
2016-06-16T12:03:56.071Z,3756
2016-06-16T12:04:56.090Z,3416
2016-06-16T12:05:56.109Z,3092
2016-06-16T12:06:56.299Z,2800
2016-06-16T12:07:56.380Z,2516
2016-06-16T12:08:56.368Z,2264
2016-06-16T12:09:56.246Z,2048
2016-06-16T12:10:56.421Z,1852
2016-06-16T12:11:56.486Z,1684
2016-06-16T12:12:56.474Z,1544
2016-06-16T12:13:56.352Z,1444
2016-06-16T12:14:56.231Z,1356
2016-06-16T12:15:56.562Z,1280
2016-06-16T12:16:56.439Z,1184
2016-06-16T12:17:56.630Z,1104
2016-06-16T12:18:56.649Z,1056
2016-06-16T12:19:56.386Z,1036
2016-06-16T12:20:56.717Z,1020
2016-06-16T12:21:56.595Z,1036
2016-06-16T12:22:56.614Z,1080
2016-06-16T12:23:56.804Z,1156
2016-06-16T12:24:56.840Z,1268
2016-06-16T12:25:56.889Z,1412
2016-06-16T12:26:56.892Z,1528
2016-06-16T12:27:56.926Z,1588
2016-06-16T12:28:56.945Z,1612
2016-06-16T12:29:56.980Z,1600
2016-06-16T12:30:57.030Z,1572
2016-06-16T12:31:57.048Z,1540
2016-06-16T12:32:56.911Z,1508
2016-06-16T12:33:56.945Z,1484
2016-06-16T12:34:57.151Z,1472
2016-06-16T12:35:57.013Z,1480
2016-06-16T12:36:57.063Z,1492
2016-06-16T12:37:57.223Z,1512
2016-06-16T12:38:57.086Z,1540
2016-06-16T12:39:57.119Z,1576
2016-06-16T12:40:57.139Z,1628
2016-06-16T12:41:57.344Z,1676
2016-06-16T12:42:57.362Z,1740
2016-06-16T12:43:57.398Z,1820
2016-06-16T12:45:00.697Z,1880
2016-06-16T12:45:57.451Z,1928
2016-06-16T12:46:57.813Z,1980
2016-06-16T12:47:57.519Z,2032
2016-06-16T12:48:57.381Z,2084
2016-06-16T12:49:57.416Z,2124
2016-06-16T12:50:57.653Z,2156
2016-06-16T12:51:57.626Z,2196
2016-06-16T12:52:57.676Z,2244
2016-06-16T12:58:46.397Z,2680
2016-06-16T12:58:58.975Z,2764
2016-06-16T12:59:58.822Z,2912
2016-06-16T13:00:59.028Z,3104
2016-06-16T13:01:59.032Z,3324
2016-06-16T13:02:59.066Z,3544
2016-06-16T13:03:59.100Z,3748
2016-06-16T13:04:59.119Z,3936
2016-06-16T13:05:59.168Z,4116
2016-06-16T13:06:59.187Z,4296
2016-06-16T13:07:59.206Z,4476
2016-06-16T13:08:59.256Z,4644
2016-06-16T13:09:59.274Z,4760
2016-06-16T13:10:59.153Z,4812
2016-06-16T13:11:59.328Z,4760
2016-06-16T13:12:59.206Z,4600
2016-06-16T13:13:59.287Z,4376
2016-06-16T13:14:59.259Z,4144
2016-06-16T13:15:59.450Z,3960
2016-06-16T13:16:59.484Z,3824
2016-06-16T13:17:59.362Z,3720
2016-06-16T13:18:59.552Z,3644
2016-06-16T13:19:59.430Z,3572
2016-06-16T13:20:59.590Z,3512
2016-06-16T13:21:59.624Z,3464
2016-06-16T13:22:59.486Z,3424
2016-06-16T13:23:59.693Z,3396
2016-06-16T13:24:59.711Z,3404
2016-06-16T13:25:59.746Z,3464
2016-06-16T13:26:59.639Z,3568
2016-06-16T13:27:59.799Z,3648
2016-06-16T13:28:59.849Z,3776
2016-06-16T13:29:59.883Z,3964
2016-06-16T13:30:59.901Z,4132
2016-06-16T13:31:59.624Z,4216
2016-06-16T13:32:59.939Z,4180
2016-06-16T13:33:59.989Z,4076
2016-06-16T13:34:59.851Z,3896
2016-06-16T13:35:59.886Z,3648
2016-06-16T13:37:00.170Z,3452
2016-06-16T13:38:00.095Z,3424
2016-06-16T13:39:00.145Z,3392
2016-06-16T13:40:00.008Z,3808
2016-06-16T13:41:00.042Z,3544
2016-06-16T13:42:00.061Z,3620
2016-06-16T13:43:00.267Z,3396
2016-06-16T13:44:00.286Z,3220
2016-06-16T13:45:00.148Z,3104
2016-06-16T13:46:00.339Z,3044
2016-06-16T13:47:00.358Z,3020
2016-06-16T13:48:00.391Z,2980
2016-06-16T13:49:00.410Z,2972
2016-06-16T13:50:00.444Z,3264
2016-06-16T13:51:00.479Z,3648
2016-06-16T13:52:00.498Z,3628
2016-06-16T13:53:00.532Z,3292
2016-06-16T13:58:44.154Z,3124